createdAt,value
2018-08-23T00:00:21.987Z,1002.39
2018-08-23T00:01:21.970Z,1002.36
2018-08-23T00:02:21.959Z,1002.35
2018-08-23T00:03:21.940Z,1002.32
2018-08-23T00:04:21.927Z,1002.30
2018-08-23T00:05:21.916Z,1002.29
2018-08-23T00:06:21.889Z,1002.26
2018-08-23T00:07:21.873Z,1002.28
2018-08-23T00:08:21.883Z,1002.29
2018-08-23T00:09:21.843Z,1002.26
2018-08-23T00:10:21.827Z,1002.24
2018-08-23T00:11:21.803Z,1002.23
2018-08-23T00:12:21.792Z,1002.20
2018-08-23T00:13:21.776Z,1002.22
2018-08-23T00:14:21.757Z,1002.21
2018-08-23T00:15:21.759Z,1002.20
2018-08-23T00:16:21.740Z,1002.20
2018-08-23T00:17:21.713Z,1002.22
2018-08-23T00:18:21.695Z,1002.20
2018-08-23T00:19:21.677Z,1002.19
2018-08-23T00:20:21.661Z,1002.20
2018-08-23T00:21:21.648Z,1002.20
2018-08-23T00:22:21.627Z,1002.18
2018-08-23T00:23:21.612Z,1002.16
2018-08-23T00:24:21.598Z,1002.14
2018-08-23T00:25:21.580Z,1002.18
2018-08-23T00:26:21.562Z,1002.18
2018-08-23T00:27:21.545Z,1002.13
2018-08-23T00:28:21.530Z,1002.15
2018-08-23T00:29:21.516Z,1002.14
2018-08-23T00:30:21.499Z,1002.09
2018-08-23T00:31:21.483Z,1002.11
2018-08-23T00:32:21.464Z,1002.10
2018-08-23T00:33:21.448Z,1002.07
2018-08-23T00:34:21.431Z,1002.07
2018-08-23T00:35:21.416Z,1002.07
2018-08-23T00:36:21.398Z,1002.05
2018-08-23T00:37:21.386Z,1002.03
2018-08-23T00:38:21.368Z,1001.99
2018-08-23T00:39:21.340Z,1002.00
2018-08-23T00:40:21.334Z,1001.98
2018-08-23T00:41:21.318Z,1001.97
2018-08-23T00:42:21.309Z,1002.00
2018-08-23T00:43:21.284Z,1001.98
2018-08-23T00:44:21.268Z,1001.95
2018-08-23T00:45:21.249Z,1001.97
2018-08-23T00:46:21.235Z,1001.94
2018-08-23T00:47:21.217Z,1001.90
2018-08-23T00:48:21.199Z,1001.91
2018-08-23T00:49:21.185Z,1001.90
2018-08-23T00:50:21.167Z,1001.92
2018-08-23T00:51:21.151Z,1001.91
2018-08-23T00:52:21.134Z,1001.91
2018-08-23T00:53:21.118Z,1001.92
2018-08-23T00:54:21.155Z,1001.91
2018-08-23T00:55:21.089Z,1001.90
2018-08-23T00:56:21.072Z,1001.87
2018-08-23T00:57:21.053Z,1001.89
2018-08-23T00:58:21.035Z,1001.88
2018-08-23T00:59:21.016Z,1001.83
2018-08-23T01:00:21.002Z,1001.83
2018-08-23T01:01:20.986Z,1001.85
2018-08-23T01:02:20.968Z,1001.84
2018-08-23T01:03:20.951Z,1001.83
2018-08-23T01:04:20.940Z,1001.87
2018-08-23T01:05:20.918Z,1001.88
2018-08-23T01:06:20.902Z,1001.83
2018-08-23T01:07:20.883Z,1001.82
2018-08-23T01:08:20.870Z,1001.81
2018-08-23T01:09:20.852Z,1001.75
2018-08-23T01:10:20.834Z,1001.78
2018-08-23T01:11:20.818Z,1001.78
2018-08-23T01:12:20.800Z,1001.81
2018-08-23T01:13:20.782Z,1001.78
2018-08-23T01:14:20.770Z,1001.81
2018-08-23T01:15:20.751Z,1001.78
2018-08-23T01:16:20.735Z,1001.74
2018-08-23T01:17:20.720Z,1001.77
2018-08-23T01:18:20.701Z,1001.73
2018-08-23T01:19:20.684Z,1001.77
2018-08-23T01:20:20.667Z,1001.75
2018-08-23T01:21:20.651Z,1001.73
2018-08-23T01:22:20.679Z,1001.73
2018-08-23T01:23:20.617Z,1001.72
2018-08-23T01:24:20.599Z,1001.70
2018-08-23T01:25:20.585Z,1001.74
2018-08-23T01:26:20.573Z,1001.73
2018-08-23T01:27:20.549Z,1001.74
2018-08-23T01:28:20.537Z,1001.70
2018-08-23T01:29:20.517Z,1001.69
2018-08-23T01:30:20.506Z,1001.72
2018-08-23T01:31:20.484Z,1001.74
2018-08-23T01:32:20.464Z,1001.70
2018-08-23T01:33:20.450Z,1001.66
2018-08-23T01:34:20.433Z,1001.69
2018-08-23T01:35:20.415Z,1001.68
2018-08-23T01:36:20.398Z,1001.64
2018-08-23T01:37:20.380Z,1001.62
2018-08-23T01:38:20.363Z,1001.64
2018-08-23T01:39:20.348Z,1001.62
2018-08-23T01:40:20.328Z,1001.63
2018-08-23T01:41:20.310Z,1001.55
2018-08-23T01:42:20.299Z,1001.55
2018-08-23T01:43:20.280Z,1001.55
2018-08-23T01:44:20.262Z,1001.54
2018-08-23T01:45:20.259Z,1001.52
2018-08-23T01:46:20.229Z,1001.52
2018-08-23T01:47:20.212Z,1001.50
2018-08-23T01:48:20.195Z,1001.49
2018-08-23T01:49:20.178Z,1001.49
2018-08-23T01:50:20.159Z,1001.49
2018-08-23T01:51:20.144Z,1001.44
2018-08-23T01:52:20.129Z,1001.44
2018-08-23T01:53:20.112Z,1001.45
2018-08-23T01:54:20.095Z,1001.40
2018-08-23T01:55:20.079Z,1001.40
2018-08-23T01:56:20.062Z,1001.40
2018-08-23T01:57:20.046Z,1001.35
2018-08-23T01:58:20.029Z,1001.40
2018-08-23T01:59:20.009Z,1001.36
2018-08-23T02:00:19.993Z,1001.37
2018-08-23T02:01:19.978Z,1001.33
2018-08-23T02:02:19.958Z,1001.31
2018-08-23T02:03:19.941Z,1001.30
2018-08-23T02:04:19.924Z,1001.30
2018-08-23T02:05:19.911Z,1001.26
2018-08-23T02:06:19.895Z,1001.29
2018-08-23T02:07:19.874Z,1001.27
2018-08-23T02:08:19.857Z,1001.25
2018-08-23T02:09:19.841Z,1001.26
2018-08-23T02:10:19.821Z,1001.24
2018-08-23T02:11:19.804Z,1001.23
2018-08-23T02:12:19.787Z,1001.25
2018-08-23T02:13:19.772Z,1001.27
2018-08-23T02:14:19.752Z,1001.27
2018-08-23T02:15:19.741Z,1001.26
2018-08-23T02:16:19.722Z,1001.28
2018-08-23T02:17:19.704Z,1001.31
2018-08-23T02:18:19.689Z,1001.31
2018-08-23T02:19:19.668Z,1001.30
2018-08-23T02:20:19.654Z,1001.33
2018-08-23T02:21:19.635Z,1001.31
2018-08-23T02:22:19.617Z,1001.30
2018-08-23T02:23:19.599Z,1001.28
2018-08-23T02:24:19.584Z,1001.25
2018-08-23T02:25:19.569Z,1001.25
2018-08-23T02:26:19.550Z,1001.23
2018-08-23T02:27:19.531Z,1001.25
2018-08-23T02:28:19.516Z,1001.20
2018-08-23T02:29:19.500Z,1001.15
2018-08-23T02:30:19.481Z,1001.18
2018-08-23T02:31:19.463Z,1001.19
2018-08-23T02:32:19.438Z,1001.17
2018-08-23T02:33:19.465Z,1001.15
2018-08-23T02:34:19.408Z,1001.14
2018-08-23T02:35:19.395Z,1001.13
2018-08-23T02:36:19.377Z,1001.07
2018-08-23T02:37:19.361Z,1001.09
2018-08-23T02:38:19.459Z,1001.05
2018-08-23T02:39:19.325Z,1001.04
2018-08-23T02:40:19.309Z,1001.03
2018-08-23T02:41:19.291Z,1001.03
2018-08-23T02:42:19.276Z,1001.00
2018-08-23T02:43:19.257Z,1001.03
2018-08-23T02:44:19.240Z,1000.99
2018-08-23T02:45:19.223Z,1000.98
2018-08-23T02:46:19.204Z,1001.01
2018-08-23T02:47:19.186Z,1001.01
2018-08-23T02:48:19.175Z,1000.97
2018-08-23T02:49:19.152Z,1000.94
2018-08-23T02:50:19.140Z,1000.94
2018-08-23T02:51:19.119Z,1000.95
2018-08-23T02:52:19.102Z,1000.94
2018-08-23T02:53:19.087Z,1000.93
2018-08-23T02:54:19.067Z,1000.92
2018-08-23T02:55:19.049Z,1000.93
2018-08-23T02:56:19.033Z,1000.93
2018-08-23T02:57:19.016Z,1000.93
2018-08-23T02:58:18.999Z,1000.94
2018-08-23T02:59:18.981Z,1000.94
2018-08-23T03:00:18.962Z,1000.94
2018-08-23T03:01:18.949Z,1000.92
2018-08-23T03:02:18.929Z,1000.90
2018-08-23T03:03:18.911Z,1000.89
2018-08-23T03:04:18.891Z,1000.86
2018-08-23T03:05:18.877Z,1000.88
2018-08-23T03:06:18.856Z,1000.83
2018-08-23T03:07:18.842Z,1000.83
2018-08-23T03:08:18.824Z,1000.83
2018-08-23T03:09:18.805Z,1000.81
2018-08-23T03:10:18.786Z,1000.80
2018-08-23T03:11:18.771Z,1000.83
2018-08-23T03:12:18.754Z,1000.81
2018-08-23T03:13:18.738Z,1000.78
2018-08-23T03:14:18.719Z,1000.77
2018-08-23T03:15:18.700Z,1000.83
2018-08-23T03:16:18.682Z,1000.79
2018-08-23T03:17:18.666Z,1000.77
2018-08-23T03:18:18.645Z,1000.78
2018-08-23T03:19:18.632Z,1000.77
2018-08-23T03:20:18.613Z,1000.73
2018-08-23T03:21:18.600Z,1000.76
2018-08-23T03:22:18.577Z,1000.73
2018-08-23T03:23:18.568Z,1000.76
2018-08-23T03:24:18.543Z,1000.71
2018-08-23T03:25:18.525Z,1000.73
2018-08-23T03:26:18.510Z,1000.67
2018-08-23T03:27:18.492Z,1000.70
2018-08-23T03:28:18.475Z,1000.68
2018-08-23T03:29:18.454Z,1000.69
2018-08-23T03:30:18.441Z,1000.70
2018-08-23T03:31:18.420Z,1000.74
2018-08-23T03:32:18.404Z,1000.71
2018-08-23T03:33:18.386Z,1000.71
2018-08-23T03:34:18.366Z,1000.70
2018-08-23T03:35:18.349Z,1000.67
2018-08-23T03:36:18.338Z,1000.69
2018-08-23T03:37:18.316Z,1000.68
2018-08-23T03:38:18.299Z,1000.68
2018-08-23T03:39:18.281Z,1000.65
2018-08-23T03:40:18.265Z,1000.63
2018-08-23T03:41:18.245Z,1000.65
2018-08-23T03:42:18.228Z,1000.60
2018-08-23T03:43:18.211Z,1000.62
2018-08-23T03:44:18.195Z,1000.63
2018-08-23T03:45:18.175Z,1000.58
2018-08-23T03:46:18.158Z,1000.61
2018-08-23T03:47:18.139Z,1000.59
2018-08-23T03:48:18.127Z,1000.59
2018-08-23T03:49:18.103Z,1000.61
2018-08-23T03:50:18.090Z,1000.58
2018-08-23T03:51:18.067Z,1000.58
2018-08-23T03:52:18.053Z,1000.58
2018-08-23T03:53:18.032Z,1000.62
2018-08-23T03:54:18.015Z,1000.62
2018-08-23T03:55:17.998Z,1000.65
2018-08-23T03:56:17.981Z,1000.63
2018-08-23T03:57:17.962Z,1000.66
2018-08-23T03:58:17.947Z,1000.59
2018-08-23T03:59:17.928Z,1000.62
2018-08-23T04:00:17.912Z,1000.63
2018-08-23T04:01:17.891Z,1000.62
2018-08-23T04:02:17.880Z,1000.60
2018-08-23T04:03:17.859Z,1000.63
2018-08-23T04:04:17.839Z,1000.63
2018-08-23T04:05:17.822Z,1000.68
2018-08-23T04:06:17.803Z,1000.66
2018-08-23T04:07:17.786Z,1000.68
2018-08-23T04:08:17.769Z,1000.66
2018-08-23T04:09:17.751Z,1000.63
2018-08-23T04:10:17.732Z,1000.66
2018-08-23T04:11:17.759Z,1000.63
2018-08-23T04:12:17.698Z,1000.59
2018-08-23T04:13:17.679Z,1000.59
2018-08-23T04:17:23.833Z,1000.62
2018-08-23T04:18:23.802Z,1000.64
2018-08-23T04:19:23.786Z,1000.62
2018-08-23T04:20:23.769Z,1000.64
2018-08-23T04:21:23.751Z,1000.63
2018-08-23T04:22:23.731Z,1000.59
2018-08-23T04:23:23.714Z,1000.55
2018-08-23T04:24:23.696Z,1000.59
2018-08-23T04:25:23.679Z,1000.55
2018-08-23T04:26:23.656Z,1000.54
2018-08-23T04:27:23.642Z,1000.56
2018-08-23T04:28:23.625Z,1000.56
2018-08-23T04:29:23.610Z,1000.54
2018-08-23T04:30:23.590Z,1000.55
2018-08-23T04:31:23.572Z,1000.50
2018-08-23T04:32:23.556Z,1000.52
2018-08-23T04:33:23.544Z,1000.50
2018-08-23T04:34:23.519Z,1000.51
2018-08-23T04:35:23.503Z,1000.51
2018-08-23T04:36:23.484Z,1000.49
2018-08-23T04:37:23.465Z,1000.49
2018-08-23T04:38:23.448Z,1000.50
2018-08-23T04:39:23.432Z,1000.50
2018-08-23T04:40:23.412Z,1000.47
2018-08-23T04:41:23.399Z,1000.45
2018-08-23T04:42:23.380Z,1000.40
2018-08-23T04:43:23.381Z,1000.37
2018-08-23T04:44:23.343Z,1000.41
2018-08-23T04:45:23.327Z,1000.41
2018-08-23T04:46:23.304Z,1000.41
2018-08-23T04:47:23.288Z,1000.39
2018-08-23T04:48:23.270Z,1000.41
2018-08-23T04:49:23.255Z,1000.38
2018-08-23T04:50:23.235Z,1000.37
2018-08-23T04:51:23.218Z,1000.34
2018-08-23T04:52:23.200Z,1000.36
2018-08-23T04:53:23.183Z,1000.36
2018-08-23T04:54:23.164Z,1000.33
2018-08-23T04:55:23.145Z,1000.34
2018-08-23T04:56:23.129Z,1000.35
2018-08-23T04:57:23.112Z,1000.33
2018-08-23T04:58:23.095Z,1000.35
2018-08-23T04:59:23.076Z,1000.36
2018-08-23T05:00:23.056Z,1000.33
2018-08-23T05:01:23.039Z,1000.32
2018-08-23T05:02:23.020Z,1000.27
2018-08-23T05:03:23.005Z,1000.33
2018-08-23T05:04:22.985Z,1000.33
2018-08-23T05:05:22.970Z,1000.32
2018-08-23T05:06:22.950Z,1000.27
2018-08-23T05:07:22.931Z,1000.27
2018-08-23T05:08:22.914Z,1000.27
2018-08-23T05:09:22.897Z,1000.25
2018-08-23T05:10:22.877Z,1000.28
2018-08-23T05:11:22.860Z,1000.28
2018-08-23T05:12:22.843Z,1000.26
2018-08-23T05:13:22.826Z,1000.24
2018-08-23T05:14:22.808Z,1000.27
2018-08-23T05:15:22.791Z,1000.24
2018-08-23T05:16:22.772Z,1000.25
2018-08-23T05:17:22.754Z,1000.28
2018-08-23T05:18:22.735Z,1000.26
2018-08-23T05:19:22.721Z,1000.25
2018-08-23T05:20:22.707Z,1000.25
2018-08-23T05:21:22.684Z,1000.28
2018-08-23T05:22:22.666Z,1000.27
2018-08-23T05:23:22.647Z,1000.29
2018-08-23T05:24:22.630Z,1000.30
2018-08-23T05:25:22.615Z,1000.28
2018-08-23T05:26:22.594Z,1000.35
2018-08-23T05:27:22.581Z,1000.33
2018-08-23T05:28:22.561Z,1000.32
2018-08-23T05:29:22.543Z,1000.36
2018-08-23T05:30:22.526Z,1000.32
2018-08-23T05:31:22.508Z,1000.36
2018-08-23T05:32:22.487Z,1000.32
2018-08-23T05:33:22.470Z,1000.32
2018-08-23T05:34:22.453Z,1000.29
2018-08-23T05:35:22.435Z,1000.33
2018-08-23T05:36:22.421Z,1000.33
2018-08-23T05:37:22.400Z,1000.32
2018-08-23T05:39:55.484Z,1000.35
2018-08-23T05:40:55.453Z,1000.40
2018-08-23T05:41:55.435Z,1000.41
2018-08-23T05:42:55.417Z,1000.42
2018-08-23T05:43:55.398Z,1000.39
2018-08-23T05:44:55.380Z,1000.41
2018-08-23T05:45:55.366Z,1000.40
2018-08-23T05:46:55.347Z,1000.38
2018-08-23T05:47:55.328Z,1000.35
2018-08-23T05:48:55.314Z,1000.37
2018-08-23T05:51:59.969Z,1000.37
2018-08-23T05:52:28.369Z,1000.36
2018-08-23T05:53:28.353Z,1000.40
2018-08-23T05:54:28.335Z,1000.35
2018-08-23T05:55:28.315Z,1000.39
2018-08-23T05:56:28.302Z,1000.42
2018-08-23T05:57:28.281Z,1000.40
2018-08-23T05:58:28.269Z,1000.35
2018-08-23T06:02:33.441Z,1000.34
2018-08-23T06:03:33.454Z,1000.35
2018-08-23T06:04:33.393Z,1000.36
2018-08-23T06:05:33.985Z,1000.36
2018-08-23T06:06:33.362Z,1000.29
2018-08-23T06:07:33.346Z,1000.34
2018-08-23T06:08:33.330Z,1000.35
2018-08-23T06:09:33.311Z,1000.35
2018-08-23T06:10:33.297Z,1000.33
2018-08-23T06:11:33.279Z,1000.34
2018-08-23T06:12:33.263Z,1000.38
2018-08-23T06:13:33.249Z,1000.37
2018-08-23T06:14:33.234Z,1000.35
2018-08-23T06:15:33.222Z,1000.34
2018-08-23T06:16:33.204Z,1000.36
2018-08-23T06:17:33.187Z,1000.35
2018-08-23T06:18:33.173Z,1000.40
2018-08-23T06:19:33.158Z,1000.38
2018-08-23T06:20:33.143Z,1000.41
2018-08-23T06:21:33.127Z,1000.38
2018-08-23T06:22:33.114Z,1000.36
2018-08-23T06:23:33.099Z,1000.37
2018-08-23T06:24:33.086Z,1000.37
2018-08-23T06:25:33.072Z,1000.38
2018-08-23T06:26:33.059Z,1000.43
2018-08-23T06:27:33.122Z,1000.41
2018-08-23T06:28:33.032Z,1000.42
2018-08-23T06:29:33.015Z,1000.41
2018-08-23T06:30:33.002Z,1000.44
2018-08-23T06:31:32.986Z,1000.44
2018-08-23T06:32:32.978Z,1000.44
2018-08-23T06:33:33.088Z,1000.45
2018-08-23T06:34:32.947Z,1000.45
2018-08-23T06:35:32.983Z,1000.43
2018-08-23T06:36:32.925Z,1000.46
2018-08-23T06:37:32.940Z,1000.46
2018-08-23T06:38:32.899Z,1000.47
2018-08-23T06:39:32.880Z,1000.49
2018-08-23T06:40:32.869Z,1000.47
2018-08-23T06:41:32.857Z,1000.46
2018-08-23T06:42:32.848Z,1000.48
2018-08-23T06:43:32.827Z,1000.48
2018-08-23T06:44:32.850Z,1000.47
2018-08-23T06:45:32.807Z,1000.49
2018-08-23T06:46:32.795Z,1000.44
2018-08-23T06:47:32.783Z,1000.44
2018-08-23T06:48:32.769Z,1000.45
2018-08-23T06:49:32.747Z,1000.43
2018-08-23T06:50:32.746Z,1000.42
2018-08-23T06:51:32.731Z,1000.46
2018-08-23T06:52:32.719Z,1000.42
2018-08-23T06:53:32.738Z,1000.43
2018-08-23T06:54:32.697Z,1000.42
2018-08-23T06:55:32.688Z,1000.42
2018-08-23T06:56:32.686Z,1000.43
2018-08-23T06:57:32.658Z,1000.47
2018-08-23T06:58:32.648Z,1000.47
2018-08-23T06:59:32.642Z,1000.48
2018-08-23T07:00:32.622Z,1000.47
2018-08-23T07:01:32.616Z,1000.47
2018-08-23T07:02:32.602Z,1000.44
2018-08-23T07:03:32.591Z,1000.43
2018-08-23T07:04:32.578Z,1000.45
2018-08-23T07:05:32.585Z,1000.46
2018-08-23T07:06:32.569Z,1000.44
2018-08-23T07:07:32.569Z,1000.43
2018-08-23T07:08:32.533Z,1000.38
2018-08-23T07:09:32.524Z,1000.40
2018-08-23T07:10:32.509Z,1000.36
2018-08-23T07:11:32.497Z,1000.34
2018-08-23T07:12:32.487Z,1000.34
2018-08-23T07:13:32.478Z,1000.33
2018-08-23T07:14:32.465Z,1000.34
2018-08-23T07:15:32.456Z,1000.33
2018-08-23T07:16:32.443Z,1000.29
2018-08-23T07:17:32.475Z,1000.28
2018-08-23T07:18:32.424Z,1000.28
2018-08-23T07:19:32.416Z,1000.26
2018-08-23T07:20:32.403Z,1000.26
2018-08-23T07:21:32.390Z,1000.25
2018-08-23T07:22:32.386Z,1000.22
2018-08-23T07:23:32.368Z,1000.24
2018-08-23T07:24:32.355Z,1000.23
2018-08-23T07:25:32.348Z,1000.19
2018-08-23T07:26:32.336Z,1000.19
2018-08-23T07:27:32.322Z,1000.21
2018-08-23T07:28:32.311Z,1000.20
2018-08-23T07:29:32.297Z,1000.25
2018-08-23T07:30:32.288Z,1000.25
2018-08-23T07:31:32.277Z,1000.28
2018-08-23T07:32:32.266Z,1000.29
2018-08-23T07:33:32.267Z,1000.29
2018-08-23T07:34:32.241Z,1000.27
2018-08-23T07:35:32.228Z,1000.28
2018-08-23T07:36:32.218Z,1000.29
2018-08-23T07:37:32.206Z,1000.33
2018-08-23T07:38:32.194Z,1000.36
2018-08-23T07:39:32.181Z,1000.30
2018-08-23T07:40:32.172Z,1000.32
2018-08-23T07:41:32.162Z,1000.35
2018-08-23T07:42:32.149Z,1000.35
2018-08-23T07:43:32.135Z,1000.42
2018-08-23T07:44:32.122Z,1000.42
2018-08-23T07:45:32.112Z,1000.39
2018-08-23T07:46:32.098Z,1000.40
2018-08-23T07:47:32.087Z,1000.39
2018-08-23T07:48:32.114Z,1000.41
2018-08-23T07:49:32.064Z,1000.37
2018-08-23T07:50:32.051Z,1000.38
2018-08-23T07:51:32.038Z,1000.34
2018-08-23T07:52:32.085Z,1000.36
2018-08-23T07:53:32.117Z,1000.38
2018-08-23T07:54:32.001Z,1000.38
2018-08-23T07:55:31.995Z,1000.36
2018-08-23T07:56:31.977Z,1000.31
2018-08-23T07:57:31.971Z,1000.35
2018-08-23T07:58:31.953Z,1000.37
2018-08-23T07:59:31.945Z,1000.39
2018-08-23T08:00:31.927Z,1000.39
2018-08-23T08:01:31.916Z,1000.39
2018-08-23T08:02:31.904Z,1000.37
2018-08-23T08:03:31.888Z,1000.40
2018-08-23T08:04:31.878Z,1000.45
2018-08-23T08:05:31.867Z,1000.41
2018-08-23T08:06:31.853Z,1000.43
2018-08-23T08:07:31.841Z,1000.40
2018-08-23T08:08:31.829Z,1000.38
2018-08-23T08:09:31.820Z,1000.40
2018-08-23T08:10:31.803Z,1000.43
2018-08-23T08:11:31.795Z,1000.40
2018-08-23T08:12:31.779Z,1000.38
2018-08-23T08:13:31.769Z,1000.34
2018-08-23T08:14:31.758Z,1000.39
2018-08-23T08:15:32.026Z,1000.33
2018-08-23T08:18:03.833Z,1000.35
2018-08-23T08:18:53.762Z,1000.31
2018-08-23T08:19:53.745Z,1000.34
2018-08-23T08:20:53.816Z,1000.34
2018-08-23T08:21:53.722Z,1000.36
2018-08-23T08:22:53.722Z,1000.33
2018-08-23T08:23:53.697Z,1000.33
2018-08-23T08:28:00.186Z,1000.35
2018-08-23T08:28:39.172Z,1000.32
2018-08-23T08:29:39.161Z,1000.29
2018-08-23T08:30:39.144Z,1000.29
2018-08-23T08:34:45.322Z,1000.29
2018-08-23T08:35:45.289Z,1000.26
2018-08-23T08:41:24.570Z,1000.30
2018-08-23T08:42:24.560Z,1000.33
2018-08-23T08:43:24.537Z,1000.25
2018-08-23T08:44:24.520Z,1000.28
2018-08-23T08:50:15.407Z,1000.28
2018-08-23T08:51:02.787Z,1000.31
2018-08-23T08:52:02.748Z,1000.28
2018-08-23T08:53:02.754Z,1000.34
2018-08-23T08:54:02.738Z,1000.30
2018-08-23T08:55:02.752Z,1000.25
2018-08-23T08:56:02.723Z,1000.26
2018-08-23T08:57:02.713Z,1000.26
2018-08-23T08:58:02.694Z,1000.24
2018-08-23T08:59:02.673Z,1000.24
2018-08-23T09:00:02.678Z,1000.24
2018-08-23T09:01:02.667Z,1000.20
2018-08-23T09:02:02.642Z,1000.21
2018-08-23T09:03:02.679Z,1000.15
2018-08-23T09:04:02.643Z,1000.16
2018-08-23T09:05:02.604Z,1000.14
2018-08-23T09:06:02.649Z,1000.18
2018-08-23T09:07:02.586Z,1000.15
2018-08-23T09:08:02.582Z,1000.18
2018-08-23T09:09:02.549Z,1000.17
2018-08-23T09:10:02.572Z,1000.13
2018-08-23T09:11:02.539Z,1000.12
2018-08-23T09:12:02.519Z,1000.14
2018-08-23T09:13:02.504Z,1000.14
2018-08-23T09:14:02.532Z,1000.09
2018-08-23T09:15:02.483Z,1000.09
2018-08-23T09:16:02.469Z,1000.10
2018-08-23T09:17:02.471Z,1000.04
2018-08-23T09:18:02.444Z,1000.04
2018-08-23T09:19:02.432Z,1000.07
2018-08-23T09:20:02.429Z,1000.04
2018-08-23T09:21:02.427Z,1000.05
2018-08-23T09:22:02.413Z,1000.04
2018-08-23T09:23:02.389Z,1000.06
2018-08-23T09:24:02.373Z,1000.04
2018-08-23T09:25:02.438Z,1000.04
2018-08-23T09:26:02.350Z,1000.04
2018-08-23T09:27:02.364Z,1000.05
2018-08-23T09:28:02.333Z,1000.03
2018-08-23T09:29:02.317Z,1000.01
2018-08-23T09:30:02.324Z,1000.03
2018-08-23T09:31:02.306Z,999.96
2018-08-23T09:32:02.376Z,999.98
2018-08-23T09:33:02.314Z,999.96
2018-08-23T09:44:53.867Z,999.96
2018-08-23T09:45:53.879Z,999.91
2018-08-23T09:46:53.831Z,999.90
2018-08-23T09:47:53.827Z,999.87
2018-08-23T09:48:53.810Z,999.89
2018-08-23T09:49:53.801Z,999.90
2018-08-23T09:50:53.929Z,999.95
2018-08-23T09:51:53.776Z,999.92
2018-08-23T09:52:53.773Z,999.93
2018-08-23T09:53:53.748Z,999.88
2018-08-23T09:54:53.777Z,999.86
2018-08-23T09:55:53.752Z,999.84
2018-08-23T09:56:53.728Z,999.87
2018-08-23T09:57:53.713Z,999.85
2018-08-23T09:58:53.750Z,999.79
2018-08-23T09:59:53.693Z,999.83
2018-08-23T10:00:53.685Z,999.78
2018-08-23T10:01:53.670Z,999.83
2018-08-23T10:02:53.684Z,999.84
2018-08-23T10:03:53.646Z,999.82
2018-08-23T10:04:53.636Z,999.83
2018-08-23T10:05:53.640Z,999.85
2018-08-23T10:06:53.620Z,999.85
2018-08-23T10:07:53.606Z,999.80
2018-08-23T10:08:53.600Z,999.81
2018-08-23T10:09:53.585Z,999.76
2018-08-23T10:10:53.574Z,999.74
2018-08-23T10:11:53.670Z,999.71
2018-08-23T10:12:53.557Z,999.66
2018-08-23T10:13:53.547Z,999.70
2018-08-23T10:14:53.537Z,999.71
2018-08-23T10:18:05.708Z,999.70
2018-08-23T10:18:26.630Z,999.74
2018-08-23T10:19:26.640Z,999.71
2018-08-23T10:20:26.609Z,999.71
2018-08-23T10:21:26.600Z,999.76
2018-08-23T10:22:26.591Z,999.73
2018-08-23T10:23:26.589Z,999.73
2018-08-23T10:24:26.575Z,999.67
2018-08-23T10:25:26.565Z,999.65
2018-08-23T10:26:26.573Z,999.63
2018-08-23T10:27:26.537Z,999.66
2018-08-23T10:28:26.531Z,999.66
2018-08-23T10:29:26.544Z,999.65
2018-08-23T10:30:26.501Z,999.61
2018-08-23T10:31:26.494Z,999.58
2018-08-23T10:32:26.547Z,999.60
2018-08-23T10:33:26.477Z,999.60
2018-08-23T10:34:26.461Z,999.60
2018-08-23T10:35:26.481Z,999.60
2018-08-23T10:36:26.442Z,999.60
2018-08-23T10:37:26.432Z,999.60
2018-08-23T10:38:26.462Z,999.63
2018-08-23T10:39:26.442Z,999.59
2018-08-23T10:40:26.434Z,999.57
2018-08-23T10:41:26.386Z,999.57
2018-08-23T10:42:26.380Z,999.60
2018-08-23T10:43:26.380Z,999.55
2018-08-23T10:44:26.367Z,999.51
2018-08-23T10:45:26.355Z,999.54
2018-08-23T10:46:26.342Z,999.51
2018-08-23T10:47:26.327Z,999.54
2018-08-23T10:48:26.327Z,999.58
2018-08-23T10:49:26.323Z,999.55
2018-08-23T10:50:26.303Z,999.55
2018-08-23T10:51:26.289Z,999.56
2018-08-23T10:52:26.289Z,999.54
2018-08-23T10:53:26.286Z,999.57
2018-08-23T10:54:26.263Z,999.60
2018-08-23T10:55:26.247Z,999.59
2018-08-23T10:56:26.243Z,999.61
2018-08-23T10:57:26.233Z,999.56
2018-08-23T10:58:26.223Z,999.57
2018-08-23T10:59:26.216Z,999.59
2018-08-23T11:00:26.204Z,999.57
2018-08-23T11:01:26.198Z,999.54
2018-08-23T11:02:26.186Z,999.49
2018-08-23T11:03:26.172Z,999.50
2018-08-23T11:04:26.158Z,999.47
2018-08-23T11:05:26.174Z,999.52
2018-08-23T11:06:26.158Z,999.47
2018-08-23T11:07:26.129Z,999.50
2018-08-23T11:08:26.121Z,999.51
2018-08-23T11:09:26.109Z,999.51
2018-08-23T11:10:26.098Z,999.53
2018-08-23T11:11:26.134Z,999.48
2018-08-23T11:12:26.085Z,999.44
2018-08-23T11:13:26.070Z,999.46
2018-08-23T11:14:26.054Z,999.50
2018-08-23T11:15:26.048Z,999.51
2018-08-23T11:16:26.028Z,999.48
2018-08-23T11:17:26.019Z,999.49
2018-08-23T11:18:26.023Z,999.52
2018-08-23T11:19:25.998Z,999.50
2018-08-23T11:20:26.001Z,999.43
2018-08-23T11:21:25.979Z,999.42
2018-08-23T11:22:25.975Z,999.36
2018-08-23T11:23:26.887Z,999.40
2018-08-23T11:24:25.949Z,999.40
2018-08-23T11:25:25.954Z,999.44
2018-08-23T11:26:25.972Z,999.44
2018-08-23T11:27:25.920Z,999.46
2018-08-23T11:29:51.112Z,999.52
2018-08-23T11:30:51.055Z,999.46
2018-08-23T11:31:51.056Z,999.46
2018-08-23T11:32:51.054Z,999.43
2018-08-23T11:33:51.044Z,999.37
2018-08-23T11:34:51.017Z,999.45
2018-08-23T11:35:51.020Z,999.43
2018-08-23T11:36:50.993Z,999.40
2018-08-23T11:37:50.991Z,999.41
2018-08-23T11:38:50.978Z,999.44
2018-08-23T11:39:50.965Z,999.40
2018-08-23T11:40:50.960Z,999.40
2018-08-23T11:41:50.948Z,999.41
2018-08-23T11:42:51.035Z,999.38
2018-08-23T11:43:50.928Z,999.43
2018-08-23T11:44:50.916Z,999.34
2018-08-23T11:45:50.907Z,999.34
2018-08-23T11:46:50.911Z,999.34
2018-08-23T11:47:50.886Z,999.32
2018-08-23T11:48:50.902Z,999.30
2018-08-23T11:49:50.882Z,999.32
2018-08-23T11:50:50.854Z,999.29
2018-08-23T11:51:50.845Z,999.29
2018-08-23T11:52:50.844Z,999.22
2018-08-23T11:53:50.858Z,999.25
2018-08-23T11:54:50.808Z,999.26
2018-08-23T11:55:50.806Z,999.21
2018-08-23T11:56:50.787Z,999.19
2018-08-23T11:57:50.805Z,999.16
2018-08-23T11:58:50.774Z,999.30
2018-08-23T11:59:50.777Z,999.22
2018-08-23T12:00:50.773Z,999.21
2018-08-23T12:01:50.754Z,999.26
2018-08-23T12:02:50.741Z,999.27
2018-08-23T12:03:50.720Z,999.32
2018-08-23T12:04:50.747Z,999.35
2018-08-23T12:05:50.698Z,999.32
2018-08-23T12:06:50.700Z,999.29
2018-08-23T12:07:50.704Z,999.22
2018-08-23T12:08:50.674Z,999.23
2018-08-23T12:09:50.699Z,999.16
2018-08-23T12:10:50.667Z,999.23
2018-08-23T12:11:50.699Z,999.24
2018-08-23T12:12:50.631Z,999.25
2018-08-23T12:13:50.679Z,999.19
2018-08-23T12:14:50.631Z,999.16
2018-08-23T12:15:50.651Z,999.14
2018-08-23T12:16:50.610Z,999.19
2018-08-23T12:17:50.601Z,999.20
2018-08-23T12:18:50.573Z,999.20
2018-08-23T12:19:50.563Z,999.23
2018-08-23T12:20:50.562Z,999.20
2018-08-23T12:21:50.551Z,999.19
2018-08-23T12:22:50.528Z,999.19
2018-08-23T12:23:50.532Z,999.20
2018-08-23T12:24:50.514Z,999.20
2018-08-23T12:25:50.574Z,999.15
2018-08-23T12:26:50.496Z,999.10
2018-08-23T12:27:50.481Z,999.08
2018-08-23T12:28:50.476Z,999.11
2018-08-23T12:29:50.476Z,999.18
2018-08-23T12:30:50.447Z,999.17
2018-08-23T12:31:50.456Z,999.17
2018-08-23T12:32:50.430Z,999.18
2018-08-23T12:33:50.465Z,999.17
2018-08-23T12:34:50.453Z,999.14
2018-08-23T12:35:50.405Z,999.16
2018-08-23T12:36:50.389Z,999.13
2018-08-23T12:39:13.482Z,999.11
2018-08-23T12:40:13.433Z,999.06
2018-08-23T12:41:13.428Z,999.05
2018-08-23T12:42:13.409Z,998.99
2018-08-23T12:43:13.409Z,999.07
2018-08-23T12:44:13.393Z,999.08
2018-08-23T12:45:13.382Z,999.06
2018-08-23T12:46:13.374Z,999.06
2018-08-23T12:47:13.363Z,999.10
2018-08-23T12:48:13.358Z,999.09
2018-08-23T12:49:13.346Z,999.03
2018-08-23T12:50:13.338Z,999.06
2018-08-23T12:51:13.369Z,999.03
2018-08-23T12:52:13.315Z,999.01